ACT        NSW        VIC        QLD        SA        WA        TAS        NT        INFO        CALC            by VK5ZD

  Atmospheric Gas Attenuation - ITU Rec 676-11   --------------- db/100km ---------------
WA Stations Date Time Temp RH % AH g/m3 Dew Point Wind Direction Speed kph Gust kph Barometer mB Rainfall Since 9am 24GHz 47GHz 76GHz 122GHz 134GHz 241GHz
Albany Airport 14 22:20 9 82 7.23 6.1 13 15 1018.9 0 16.9 25.3 36.8 96.4 86.3 295.4
Argyle 14 23:50 20.2 48 8.39 8.8 9 9 1014.6 0 18.8 23.9 36.0 94.5 88.3 303.8
Badgingarra 14 22:20 12.1 82 8.79 9.1 13 17 1013.1 0 20.1 26.7 41.4 108.8 103.2 354.9
Barimunya 14 22:20 20.1 36 6.26 4.6 7 7 1013.1 0 14.4 20.8 28.5 74.5 63.6 217.3
Barrow Island 14 22:20 20 77 13.31 15.8 13 13 1014 0 29.3 31.8 55.7 147.0 153.0 530.0
Bickley 14 22:00 10.2 85 8.09 7.8 19 28 1013.1 0 18.7 26.1 39.5 103.7 96.1 329.9
Bridgetown 14 22:20 5.4 97 6.77 4.9 0 0 1018 0 16.0 25.5 36.5 95.6 83.9 286.6
Broome 14 22:20 17 92 13.31 15.7 0 0 1014.1 0 29.5 32.9 58.0 152.9 159.2 551.1
Bunbury 14 22:20 9.9 100 9.34 9.9 6 7 1017 0.2 21.4 28.5 45.2 118.7 114.3 393.6
Busselton Airport 14 22:20 9.4 88 7.96 7.5 13 15 1016.7 0.2 18.4 26.3 39.5 103.7 95.6 328.0
Cape Leeuwin 14 22:20 12.8 70 7.84 7.5 15 17 1016.8 0.2 18.0 25.1 37.4 98.0 89.9 308.6
Cape Naturaliste 14 22:20 15.2 80 10.38 11.8 22 26 1016.1 0.2 23.3 28.5 46.5 122.3 120.7 416.8
Carnarvon 14 22:20 17.9 91 13.89 16.4 9 9 1014.6 0.4 30.7 33.7 59.9 158.1 165.9 574.7
Christmas Creek 14 22:19 19.4 39 6.51 5.2 7 7 1016.2 0 14.9 21.4 29.8 77.6 67.2 229.7
Christmas Island 14 22:20 25.1 90 20.83 23.3 7 9 1010.9 0 44.9 43.4 85.8 227.1 253.0 878.7
Cocos Island 14 22:20 26 94 22.88 25 22 32 1010.6 2.8 49.1 47.1 95.0 251.6 283.3 984.2
Collie East 14 22:20 5.5 96 6.75 4.9 0 0 1013.1 0 16.0 25.2 36.2 94.8 83.2 284.1
Coondewanna 14 22:20 15.5 43 5.68 3 0 0 1013.1 0 13.3 21.0 28.1 73.3 60.6 206.1
Cunderdin Airport 14 22:20 11.2 85 8.62 8.8 11 13 1018.1 0.2 19.8 26.9 41.4 108.7 102.5 352.3
Curtin 14 22:20 21.1 56 10.32 12 13 13 1013.3 0 22.9 26.5 42.8 112.5 110.9 383.1
Dalwallinu 14 22:20 11.5 89 9.19 9.8 11 13 1016.6 0.2 21.0 27.7 43.6 114.5 109.8 378.1
Derby 14 22:20 19.4 71 11.84 14 9 9 1013.3 0 26.2 29.5 49.9 131.4 133.6 462.1
Dwellingup 14 22:20 7.3 95 7.51 6.6 13 15 1017.9 0 17.5 26.2 38.7 101.5 92.0 315.2
Eliwana Airport 14 22:20 21.5 33 6.22 4.9 6 7 1013.1 0 14.2 20.4 27.9 72.9 62.1 212.1
Esperance 14 22:20 12.2 87 9.39 10.1 9 9 1021.2 0 21.4 28.0 44.3 116.3 112.0 385.8
Esperance Airport 14 22:20 12.2 87 9.39 10.1 11 13 1021.3 0 21.4 28.0 44.3 116.3 112.0 385.8
Eucla 14 22:20 12.7 94 10.46 11.8 0 0 1022.3 0.2 23.6 29.7 48.7 128.0 126.5 436.6
Fitzroy Crossing 14 22:20 17.8 62 9.41 10.4 9 9 1013.5 0 21.1 26.0 41.0 107.7 103.8 357.9
Forrest 14 22:20 11 84 8.41 8.4 13 15 1022.5 0 19.3 26.8 40.9 107.1 100.2 344.3
Fortescue Dave Forrest 14 22:20 19.7 39 6.62 5.4 4 6 1015.5 0 15.1 21.5 30.0 78.3 68.1 233.1
Garden Island 14 22:20 14.7 76 9.57 10.5 13 19 1016.9 0 21.6 27.4 43.4 114.1 110.5 380.8
Geraldton Airport 14 22:20 15.1 89 11.48 13.3 6 6 1015.7 0 25.7 30.4 51.3 135.0 136.4 471.3
Giles* 14 23:50 16 60 8.17 8.2 15 17 1020.4 0 18.6 24.9 37.4 97.9 90.7 311.9
Gingin Airport 14 22:20 11.3 82 8.37 8.3 13 13 1017.2 0 19.2 26.4 40.3 105.7 98.8 339.6
Golden Grove 14 22:20 16 77 10.49 12 17 19 1013.1 0.2 23.5 28.3 46.3 121.9 120.7 416.8
Gooseberry Hill 14 22:20 12.6 76 8.41 8.6 26 32 1013.1 0 19.2 25.9 39.6 104.0 97.4 334.8
Gudai-Darri Mine 14 22:20 20.6 37 6.62 5.4 4 6 1013.1 0 15.1 21.2 29.6 77.2 67.2 230.0
Halls Creek 14 23:50 14.5 61 7.59 7.1 0 0 1015.1 0 17.4 24.2 35.6 93.2 84.7 290.5
Hopetoun North 14 22:20 7.4 78 6.21 3.8 15 17 1020.1 0 14.7 24.1 33.5 87.3 74.4 253.6
Iron Bridge Mine 14 22:20 18.4 57 8.96 9.7 4 4 1013.1 0 20.1 25.1 38.9 102.2 97.3 335.1
Jacup 14 22:20 8.9 66 5.78 2.9 17 20 1019.7 0 13.8 23.0 31.1 81.2 67.5 229.4
Jandakot 14 22:20 10.7 86 8.45 8.5 9 9 1016.8 0 19.4 26.7 40.9 107.4 100.7 346.0
Kalgoorlie-Boulder 14 22:20 12.6 77 8.52 8.7 15 17 1019.8 0 19.5 26.4 40.4 105.9 99.4 341.8
Kalumburu 14 23:50 16.1 97 13.3 15.6 0 0 1014 0 29.5 33.3 58.6 154.6 160.9 557.1
Karijini North 14 22:20 19.1 36 5.9 3.7 11 11 1015.5 0 13.7 20.6 27.8 72.3 60.5 206.3
Karratha 14 22:20 19.6 82 13.84 16.4 11 13 1014.5 0 30.4 32.9 58.4 154.1 161.4 559.5
Katanning Rs 14 22:20 8 72 5.95 3.2 4 6 1018.9 0 14.2 23.5 32.1 83.8 70.4 239.6
Koolan Island / Koolan Central 14 22:20 25.2 51 11.87 14.4 11 11 1013.1 0 25.9 27.7 46.5 122.4 124.3 430.5
Kununurra Airport 14 23:50 16.7 73 10.37 11.8 0 0 1013.6 0 23.2 27.9 45.4 119.6 118.0 407.5
Lake Grace 14 22:20 10.1 74 7 5.7 17 20 1019 0 16.3 24.6 35.4 92.6 82.1 280.7
Lancelin (Defence) 14 22:20 14.1 76 9.22 9.9 11 17 1013.1 0 20.9 26.8 42.1 110.7 106.3 366.0
Laverton 14 22:20 14.3 70 8.6 8.9 17 22 1020.3 0 19.6 26.0 39.9 104.5 98.3 338.3
Learmonth 14 22:20 22.1 69 13.47 16.1 9 9 1013.8 0 29.5 31.3 54.9 144.9 151.0 523.4
Legendre Island 14 22:20 24.3 68 15.05 18 4 4 1013.1 0 32.6 33.2 60.0 158.4 168.3 584.1
Leinster 14 22:20 14.6 74 9.26 10 13 17 1018.9 0 21.0 26.9 42.3 111.1 106.6 367.3
Leonora Airport 14 22:20 15.1 64 8.26 8.3 11 13 1019.4 0 18.8 25.2 38.1 99.8 92.9 319.2
Lombadina 14 22:20 20.9 83 15.12 17.9 9 9 1013.1 0 33.1 34.6 63.0 166.4 177.1 614.2
Mandora 14 22:20 18.7 85 13.61 16.1 7 9 1013.9 0 30.0 32.8 58.0 153.1 159.9 554.1
Mandurah 14 22:20 13.9 71 8.51 8.7 9 11 1016.7 0 19.4 25.8 39.5 103.7 97.4 334.9
Manjimup 14 22:20 9 81 7.14 5.9 4 6 1018 0 16.7 25.1 36.4 95.3 85.0 291.0
Marble Bar 14 22:20 18.7 57 9.13 10 0 0 1014.6 0 20.5 25.4 39.5 103.7 99.1 341.7
Mardie 14 22:20 19.3 83 13.77 16.3 6 6 1014.3 0 30.3 32.9 58.3 153.8 161.0 558.0
Meekatharra 14 22:20 18 65 9.98 11.3 13 17 1017 0 22.3 27.0 43.3 113.8 111.2 383.9
Millendon (Swan Valley) 14 22:20 15.1 67 8.64 9 0 0 1013.1 0 19.6 25.6 39.3 103.1 97.3 334.7
Morawa Airport 14 22:20 13.5 92 10.76 12.2 4 4 1016.5 0 24.2 29.8 49.2 129.4 128.9 445.1
Mount Keith 14 22:20 15.6 72 9.57 10.6 13 17 1013.1 0 21.6 26.9 42.8 112.4 108.9 375.3
Mount Magnet Airport 14 22:20 14.5 87 10.82 12.4 13 15 1016.6 0 24.3 29.5 48.8 128.5 128.1 442.3
Munglinup West 14 22:20 8.7 84 7.27 6.1 17 17 1020.7 0 17.0 25.5 37.2 97.3 87.3 298.9
Newdegate 14 22:20 6.8 83 6.35 4.1 6 7 1019.1 0 15.1 24.4 34.2 89.4 76.8 261.9
Newman Airport 14 22:20 14.7 53 6.67 5.2 6 7 1016.2 0 15.4 22.8 32.1 83.8 73.2 250.1
Norseman Airport 14 22:20 11.6 76 7.9 7.5 13 15 1020.9 0.2 18.2 25.7 38.4 100.6 92.4 317.2
North Island 14 22:20 15.8 75 10.1 11.4 6 7 1015.6 0 22.7 27.8 44.9 118.2 115.9 400.0
Onslow Airport 14 22:20 21.2 93 17.23 20 7 7 1014.7 0 37.6 38.5 72.6 192.0 208.6 723.8
Paraburdoo 14 22:20 19.2 36 5.94 3.8 7 9 1014.6 0 13.7 20.6 27.8 72.5 60.8 207.4
Pearce 14 22:20 13.2 75 8.61 8.9 6 6 1016.6 0 19.6 26.2 40.3 105.7 99.6 342.5
Perth 14 22:20 10.3 89 8.53 8.6 0 0 1016.7 0 19.6 27.0 41.5 108.8 102.3 351.6
Perth Airport 14 22:20 13.7 69 8.17 8.1 13 13 1016.7 0 18.7 25.4 38.3 100.4 93.2 320.1
Port Hedland 14 22:20 18.5 91 14.4 17 0 0 1014.5 0 31.7 34.4 61.8 163.1 172.1 596.6
Portable Bcaa (Dbca) 14 22:00 7.5 98 7.85 7.2 0 2 1013.1 0 18.3 26.5 39.9 104.6 96.1 329.7
Portable Bcab (Dbca) 14 21:50 13 80 9.07 9.7 7 7 1013.1 0 20.6 26.9 42.1 110.6 105.7 364.1
Portable Btsa (Dfes) 14 22:10 18.3 81 12.66 15.1 6 7 1013.1 0.2 28.0 31.3 54.1 142.6 147.0 508.9
Portable Btsc (Dfes) 14 22:10 14.9 92 11.73 13.7 4 6 1013.1 0 26.2 30.8 52.4 137.9 140.1 484.2
Portable Btse (Dfes) 14 22:00 13 84 9.53 10.4 9 11 1013.1 0 21.6 27.7 44.0 115.8 112.0 386.1
Portable Btsf (Dfes) 14 22:10 5.7 99 7.05 5.5 0 4 1013.1 0 16.6 25.7 37.4 97.9 87.1 297.9
Portable Btsg (Dfes) 14 22:00 9.6 96 8.8 9 4 6 1013.1 0 20.2 27.5 42.8 112.5 106.7 367.0
Red Rocks Point 14 22:20 15.5 82 10.84 12.4 9 9 1022.6 0 24.3 29.5 48.6 127.8 127.3 439.7
Rocky Gully South 14 22:20 9.2 71 6.34 4.2 7 13 1013.1 0 15.0 23.5 32.9 86.1 74.0 252.3
Roebourne Airport 14 22:20 18 81 12.44 14.7 7 7 1014.9 0 27.6 31.1 53.4 140.8 144.6 500.6
Rottnest Island 14 22:20 16.2 68 9.38 10.3 20 24 1016.5 0 21.1 26.6 41.8 109.9 105.8 364.7
Salmon Gums Rs 14 22:20 8.8 95 8.27 8 2 4 1013.1 0 19.1 26.8 41.0 107.6 100.4 344.6
Shannon 14 22:20 7.4 93 7.4 6.3 11 13 1013.1 0 17.3 25.8 38.0 99.6 90.0 308.2
Shark Bay Airport 14 22:20 17.2 87 12.74 15 9 9 1014.9 0 28.3 31.9 55.3 145.8 150.5 520.9
Solomon Airport 14 22:20 20.4 36 6.37 5 11 11 1015.6 0 14.6 21.0 28.9 75.4 64.7 221.3
Southern Cross Airport 14 22:20 11.2 91 9.23 9.8 7 7 1019 7.4 21.1 28.0 44.1 115.7 111.0 382.2
Swanbourne 14 22:20 12.2 83 8.96 9.4 11 11 1013.1 0 20.4 27.0 42.1 110.6 105.3 362.6
Telfer 14 22:20 20 46 7.95 8 13 13 1015.1 0 17.9 23.3 34.5 90.5 83.3 286.2
Thevenard Island 14 22:00 22.3 83 16.39 19.3 9 9 1014.4 0 35.7 36.4 67.7 178.8 192.7 668.8
Troughton Island 14 23:50 24.9 73 16.71 19.7 13 15 1013.8 0 36.1 35.9 66.8 176.5 190.8 662.3
Truscott 14 23:50 18.7 96 15.37 18 0 0 1013.4 0 33.8 36.0 66.0 174.4 186.2 645.7
Varanus Island 14 22:20 23.9 73 15.79 18.8 11 13 1014.6 0 34.2 34.7 63.6 168.0 180.0 624.6
Walpole North 14 22:20 9.5 78 7.1 5.9 6 7 1017.8 0 16.6 24.9 36.0 94.2 83.9 287.2
Wandering 14 22:20 5.4 95 6.63 4.7 0 0 1013.1 0 15.7 25.1 35.7 93.5 81.6 278.7
Warburton 14 23:50 15.5 64 8.46 8.7 17 20 1021 0 19.2 25.5 38.7 101.6 95.1 327.0
Wiluna Airport 14 22:20 15.7 75 10.03 11.3 6 7 1020.5 0 22.5 27.9 44.9 118.1 115.6 398.8
Witchcliffe West 14 22:20 10.5 90 8.73 8.9 13 15 1016.8 0 20.0 27.2 42.2 110.8 104.8 360.4
Wyndham Airport 14 23:50 17.7 71 10.71 12.4 0 0 1013.6 0 23.9 28.2 46.3 121.7 121.1 418.3
Yampi Sound (Defence) 14 22:20 17.8 73 11.08 12.9 0 0 1013.1 0 24.7 28.7 47.7 125.6 125.9 435.1

Last Refresh: 15-Jun-2024 00:06:57

Bureau of Meteorology